createdAt,value
2018-10-18T00:00:28.412Z,291.23
2018-10-18T00:02:57.806Z,328.52
2018-10-18T00:05:26.529Z,288.78
2018-10-18T00:07:56.174Z,285.52
2018-10-18T00:10:25.684Z,293.90
2018-10-18T00:12:54.567Z,285.32
2018-10-18T00:15:23.211Z,281.75
2018-10-18T00:17:52.377Z,289.57
2018-10-18T00:20:21.181Z,293.17
2018-10-18T00:22:50.095Z,290.12
2018-10-18T00:25:19.300Z,289.32
2018-10-18T00:27:48.290Z,297.98
2018-10-18T00:30:17.407Z,289.38
2018-10-18T00:32:46.359Z,295.03
2018-10-18T00:35:15.087Z,446.05
2018-10-18T00:37:44.519Z,288.52
2018-10-18T00:40:13.766Z,290.62
2018-10-18T00:42:43.977Z,291.50
2018-10-18T00:45:12.821Z,330.60
2018-10-18T00:47:42.365Z,293.42
2018-10-18T00:50:12.024Z,282.23
2018-10-18T00:52:40.651Z,283.43
2018-10-18T00:55:10.413Z,286.45
2018-10-18T00:57:39.382Z,290.75
2018-10-18T01:00:10.736Z,307.92
2018-10-18T01:02:40.079Z,299.30
2018-10-18T01:05:08.869Z,302.30
2018-10-18T01:07:37.456Z,282.98
2018-10-18T01:10:07.022Z,285.63
2018-10-18T01:12:36.306Z,284.32
2018-10-18T01:15:04.805Z,288.10
2018-10-18T01:17:33.491Z,298.98
2018-10-18T01:20:02.155Z,297.50
2018-10-18T01:22:30.806Z,292.98
2018-10-18T01:24:59.435Z,306.63
2018-10-18T01:27:28.405Z,375.62
2018-10-18T01:29:57.244Z,309.55
2018-10-18T01:32:25.855Z,312.10
2018-10-18T01:34:54.600Z,288.62
2018-10-18T01:37:23.246Z,285.73
2018-10-18T01:39:52.371Z,287.72
2018-10-18T01:42:21.689Z,281.43
2018-10-18T01:44:50.438Z,284.62
2018-10-18T01:47:20.458Z,313.05
2018-10-18T01:49:49.105Z,282.92
2018-10-18T01:52:17.899Z,276.62
2018-10-18T01:54:46.474Z,319.25
2018-10-18T01:57:16.112Z,283.38
2018-10-18T01:59:45.055Z,280.12
2018-10-18T02:02:13.953Z,280.98
2018-10-18T02:04:44.652Z,290.82
2018-10-18T02:07:13.618Z,285.93
2018-10-18T02:09:43.383Z,285.05
2018-10-18T02:12:12.168Z,284.60
2018-10-18T02:14:41.032Z,285.45
2018-10-18T02:17:09.877Z,292.20
2018-10-18T02:19:39.328Z,280.50
2018-10-18T02:22:08.120Z,282.48
2018-10-18T02:24:36.984Z,280.40
2018-10-18T02:27:05.814Z,278.88
2018-10-18T02:29:34.618Z,282.20
2018-10-18T02:32:03.276Z,289.80
2018-10-18T02:34:32.185Z,281.30
2018-10-18T02:37:01.025Z,293.70
2018-10-18T02:39:29.757Z,283.70
2018-10-18T02:41:58.972Z,284.43
2018-10-18T02:44:27.938Z,284.92
2018-10-18T02:46:56.636Z,285.13
2018-10-18T02:49:25.735Z,280.65
2018-10-18T02:51:54.248Z,281.52
2018-10-18T02:54:23.704Z,278.73
2018-10-18T02:56:52.839Z,295.15
2018-10-18T02:59:21.676Z,280.67
2018-10-18T03:01:50.359Z,283.82
2018-10-18T03:04:20.719Z,271.02
2018-10-18T03:06:50.187Z,340.20
2018-10-18T03:09:18.924Z,303.02
2018-10-18T03:11:47.708Z,281.68
2018-10-18T03:14:16.367Z,277.75
2018-10-18T03:16:45.259Z,283.17
2018-10-18T03:19:14.658Z,272.93
2018-10-18T03:21:44.001Z,274.55
2018-10-18T03:24:13.127Z,273.77
2018-10-18T03:26:41.891Z,281.95
2018-10-18T03:29:10.380Z,273.80
2018-10-18T03:31:46.484Z,275.27
2018-10-18T03:37:05.280Z,277.82
2018-10-18T03:39:34.512Z,278.62
2018-10-18T03:42:03.244Z,270.12
2018-10-18T03:44:34.686Z,274.32
2018-10-18T03:47:03.444Z,273.15
2018-10-18T03:49:33.037Z,279.95
2018-10-18T03:52:02.446Z,277.93
2018-10-18T03:54:31.619Z,272.65
2018-10-18T03:57:00.858Z,273.00
2018-10-18T03:59:30.944Z,276.20
2018-10-18T04:01:59.785Z,275.25
2018-10-18T04:04:28.321Z,267.32
2018-10-18T04:06:57.325Z,271.52
2018-10-18T04:09:26.042Z,298.05
2018-10-18T04:11:54.859Z,276.60
2018-10-18T04:14:23.637Z,268.23
2018-10-18T04:16:52.915Z,270.63
2018-10-18T04:19:21.813Z,276.50
2018-10-18T04:21:50.504Z,271.77
2018-10-18T04:24:19.938Z,274.23
2018-10-18T04:26:49.384Z,271.65
2018-10-18T04:29:18.109Z,277.10
2018-10-18T04:31:47.015Z,275.10
2018-10-18T04:34:15.702Z,280.18
2018-10-18T04:36:44.424Z,276.45
2018-10-18T04:39:14.020Z,273.68
2018-10-18T04:41:42.990Z,267.93
2018-10-18T04:44:11.919Z,279.70
2018-10-18T04:46:40.762Z,270.85
2018-10-18T04:49:09.744Z,272.02
2018-10-18T04:51:38.499Z,281.77
2018-10-18T04:54:07.261Z,271.77
2018-10-18T04:56:36.442Z,270.50
2018-10-18T04:59:05.326Z,270.73
2018-10-18T05:01:34.740Z,291.25
2018-10-18T05:04:03.778Z,272.85
2018-10-18T05:06:33.049Z,276.88
2018-10-18T05:09:01.763Z,279.50
2018-10-18T05:11:30.373Z,282.75
2018-10-18T05:13:59.672Z,271.37
2018-10-18T05:16:29.112Z,269.48
2018-10-18T05:18:57.650Z,272.73
2018-10-18T05:21:26.541Z,274.75
2018-10-18T05:23:56.260Z,276.77
2018-10-18T05:26:24.979Z,276.52
2018-10-18T05:28:55.915Z,270.37
2018-10-18T05:31:25.199Z,277.73
2018-10-18T05:33:54.190Z,279.75
2018-10-18T05:36:22.816Z,284.07
2018-10-18T05:38:51.392Z,283.45
2018-10-18T05:41:20.257Z,282.40
2018-10-18T05:43:48.867Z,277.98
2018-10-18T05:46:17.964Z,278.83
2018-10-18T05:48:46.819Z,289.20
2018-10-18T05:51:15.662Z,280.65
2018-10-18T05:53:44.765Z,284.85
2018-10-18T05:56:13.174Z,286.57
2018-10-18T05:58:41.544Z,289.75
2018-10-18T06:01:10.345Z,275.87
2018-10-18T06:03:39.432Z,290.90
2018-10-18T06:06:07.897Z,283.10
2018-10-18T06:08:36.741Z,282.85
2018-10-18T06:11:10.847Z,274.85
2018-10-18T06:13:39.809Z,286.23
2018-10-18T06:16:08.598Z,280.45
2018-10-18T06:18:37.522Z,285.85
2018-10-18T06:21:05.991Z,284.90
2018-10-18T06:23:34.524Z,280.80
2018-10-18T06:26:07.885Z,285.02
2018-10-18T06:28:37.718Z,287.70
2018-10-18T06:31:06.353Z,281.90
2018-10-18T06:33:35.108Z,273.20
2018-10-18T06:36:03.795Z,305.73
2018-10-18T06:44:46.555Z,292.10
2018-10-18T06:47:16.602Z,281.30
2018-10-18T06:49:45.333Z,296.05
2018-10-18T06:52:14.082Z,284.40
2018-10-18T06:54:43.044Z,281.77
2018-10-18T06:57:11.917Z,282.17
2018-10-18T06:59:40.786Z,304.27
2018-10-18T07:02:09.616Z,291.38
2018-10-18T07:04:38.380Z,298.23
2018-10-18T07:07:07.134Z,300.02
2018-10-18T07:09:35.830Z,302.00
2018-10-18T07:12:04.510Z,425.50
2018-10-18T07:14:33.141Z,294.27
2018-10-18T07:17:01.964Z,294.60
2018-10-18T07:19:30.852Z,288.80
2018-10-18T07:21:59.744Z,282.48
2018-10-18T07:24:28.599Z,282.77
2018-10-18T07:26:57.716Z,279.80
2018-10-18T07:29:26.557Z,282.65
2018-10-18T07:31:55.529Z,298.10
2018-10-18T07:34:25.265Z,287.02
2018-10-18T07:36:54.152Z,287.52
2018-10-18T07:39:22.927Z,283.13
2018-10-18T07:41:51.533Z,286.92
2018-10-18T07:44:20.192Z,293.20
2018-10-18T07:46:57.064Z,287.72
2018-10-18T07:49:26.467Z,286.12
2018-10-18T07:51:55.488Z,289.05
2018-10-18T07:54:24.398Z,290.55
2018-10-18T07:56:53.125Z,311.45
2018-10-18T07:59:21.911Z,320.45
2018-10-18T08:01:51.120Z,310.05
2018-10-18T08:04:20.009Z,304.80
2018-10-18T08:06:49.627Z,312.52
2018-10-18T08:09:18.748Z,308.95
2018-10-18T08:11:47.683Z,311.90
2018-10-18T08:14:16.711Z,299.37
2018-10-18T08:16:45.846Z,333.25
2018-10-18T08:19:17.262Z,302.15
2018-10-18T08:21:48.517Z,320.73
2018-10-18T08:24:17.423Z,326.35
2018-10-18T08:26:52.406Z,341.33
2018-10-18T08:29:31.238Z,349.32
2018-10-18T08:32:00.057Z,334.23
2018-10-18T08:34:56.155Z,303.20
2018-10-18T08:37:30.978Z,323.02
2018-10-18T08:40:01.945Z,362.82
2018-10-18T08:42:31.939Z,393.10
2018-10-18T08:45:00.907Z,352.32
2018-10-18T08:47:30.698Z,345.88
2018-10-18T08:50:00.010Z,443.48
2018-10-18T08:52:30.084Z,417.70
2018-10-18T08:54:58.715Z,441.42
2018-10-18T08:57:27.435Z,432.88
2018-10-18T08:59:57.374Z,404.83
2018-10-18T09:02:26.101Z,424.23
2018-10-18T09:04:54.933Z,446.45
2018-10-18T09:07:23.405Z,405.77
2018-10-18T09:09:52.134Z,439.80
2018-10-18T09:12:20.601Z,483.00
2018-10-18T09:14:49.142Z,452.45
2018-10-18T09:17:17.549Z,526.48
2018-10-18T09:19:46.048Z,523.23
2018-10-18T09:22:14.702Z,532.17
2018-10-18T09:24:43.192Z,589.50
2018-10-18T09:27:11.873Z,618.10
2018-10-18T09:29:40.877Z,659.00
2018-10-18T09:32:10.130Z,585.90
2018-10-18T09:34:39.097Z,568.95
2018-10-18T09:37:08.093Z,645.25
2018-10-18T09:39:36.920Z,641.85
2018-10-18T09:42:06.076Z,606.97
2018-10-18T09:44:34.916Z,682.80
2018-10-18T09:47:03.630Z,662.67
2018-10-18T09:49:32.264Z,696.25
2018-10-18T09:52:01.081Z,921.05
2018-10-18T09:54:29.859Z,978.27
2018-10-18T09:56:58.505Z,1018.30
2018-10-18T09:59:27.310Z,997.10
2018-10-18T10:02:01.044Z,1102.40
2018-10-18T10:04:30.136Z,1114.68
2018-10-18T10:06:58.876Z,1127.38
2018-10-18T10:09:28.359Z,1222.67
2018-10-18T10:11:57.227Z,1198.78
2018-10-18T10:14:26.143Z,1326.03
2018-10-18T10:16:55.530Z,1389.80
2018-10-18T10:19:25.024Z,1387.03
2018-10-18T10:21:53.714Z,1376.85
2018-10-18T10:24:23.212Z,1404.55
2018-10-18T10:26:51.988Z,1651.83
2018-10-18T10:29:20.489Z,1409.95
2018-10-18T10:31:49.197Z,1317.43
2018-10-18T10:34:18.320Z,1403.93
2018-10-18T10:36:47.756Z,1433.85
2018-10-18T10:39:17.070Z,1374.63
2018-10-18T10:41:45.789Z,1381.75
2018-10-18T10:44:15.207Z,1349.25
2018-10-18T10:46:43.810Z,1317.33
2018-10-18T10:49:12.543Z,1265.95
2018-10-18T10:51:44.881Z,1236.30
2018-10-18T10:54:14.738Z,1296.88
2018-10-18T10:56:46.036Z,1192.90
2018-10-18T10:59:20.469Z,1195.42
2018-10-18T11:01:50.102Z,1118.58
2018-10-18T11:04:24.176Z,1053.23
2018-10-18T11:06:54.830Z,1124.58
2018-10-18T11:09:24.249Z,1001.60
2018-10-18T11:11:52.984Z,1007.05
2018-10-18T11:17:13.604Z,992.22
2018-10-18T11:19:42.234Z,895.33
2018-10-18T11:22:13.222Z,904.30
2018-10-18T11:24:43.077Z,934.22
2018-10-18T11:27:12.614Z,981.08
2018-10-18T11:29:41.717Z,934.20
2018-10-18T11:32:11.095Z,1045.47
2018-10-18T11:34:39.778Z,1041.98
2018-10-18T11:40:04.147Z,973.20
2018-10-18T11:42:34.477Z,878.27
2018-10-18T11:45:03.146Z,879.45
2018-10-18T11:47:32.954Z,894.43
2018-10-18T11:50:02.304Z,823.62
2018-10-18T11:52:33.913Z,913.55
2018-10-18T11:55:03.702Z,737.20
2018-10-18T11:57:34.036Z,863.03
2018-10-18T12:00:03.015Z,896.45
2018-10-18T12:02:34.976Z,785.75
2018-10-18T12:05:07.690Z,721.90
2018-10-18T12:07:37.900Z,795.35
2018-10-18T12:10:07.165Z,773.23
2018-10-18T12:12:35.822Z,813.12
2018-10-18T12:15:04.610Z,768.85
2018-10-18T12:17:36.714Z,664.70
2018-10-18T12:20:07.623Z,704.20
2018-10-18T12:22:39.053Z,778.27
2018-10-18T12:25:09.239Z,649.00
2018-10-18T12:27:38.609Z,705.60
2018-10-18T12:30:08.942Z,668.52
2018-10-18T12:32:39.454Z,704.77
2018-10-18T12:35:10.677Z,698.08
2018-10-18T12:37:40.432Z,670.50
2018-10-18T12:40:10.003Z,600.65
2018-10-18T12:42:41.361Z,601.45
2018-10-18T12:45:12.717Z,627.67
2018-10-18T12:47:41.997Z,610.87
2018-10-18T12:50:12.399Z,559.20
2018-10-18T12:52:41.908Z,632.40
2018-10-18T12:55:10.914Z,1022.28
2018-10-18T12:57:40.016Z,641.77
2018-10-18T13:00:10.759Z,651.02
2018-10-18T13:02:42.185Z,641.92
2018-10-18T13:05:11.956Z,685.80
2018-10-18T13:07:42.284Z,684.05
2018-10-18T13:10:12.243Z,692.87
2018-10-18T13:12:44.221Z,752.58
2018-10-18T13:15:15.579Z,764.45
2018-10-18T13:17:45.826Z,672.40
2018-10-18T13:20:17.957Z,615.70
2018-10-18T13:22:48.583Z,697.90
2018-10-18T13:25:18.864Z,721.95
2018-10-18T13:27:49.781Z,681.37
2018-10-18T13:30:20.183Z,617.27
2018-10-18T13:32:49.661Z,685.65
2018-10-18T13:35:19.271Z,725.12
2018-10-18T13:37:49.021Z,745.95
2018-10-18T13:40:32.381Z,748.10
2018-10-18T13:43:05.036Z,899.17
2018-10-18T13:48:45.627Z,705.42
2018-10-18T13:51:22.074Z,694.40
2018-10-18T13:53:51.445Z,762.15
2018-10-18T13:56:20.363Z,755.00
2018-10-18T13:58:49.537Z,810.65
2018-10-18T14:01:19.367Z,728.17
2018-10-18T14:03:48.139Z,756.95
2018-10-18T14:06:17.493Z,732.52
2018-10-18T14:08:46.493Z,724.75
2018-10-18T14:11:16.088Z,681.50
2018-10-18T14:13:45.379Z,660.25
2018-10-18T14:16:16.874Z,701.95
2018-10-18T14:18:49.465Z,666.65
2018-10-18T14:21:21.088Z,616.33
2018-10-18T14:23:51.268Z,675.02
2018-10-18T14:26:20.492Z,644.88
2018-10-18T14:28:49.649Z,650.55
2018-10-18T14:31:18.670Z,741.85
2018-10-18T14:33:47.612Z,760.27
2018-10-18T14:36:16.911Z,761.83
2018-10-18T14:38:45.998Z,745.05
2018-10-18T14:41:14.932Z,712.33
2018-10-18T14:43:44.060Z,815.85
2018-10-18T14:46:14.281Z,766.00
2018-10-18T14:48:43.901Z,722.10
2018-10-18T14:51:13.894Z,779.65
2018-10-18T14:53:43.657Z,803.58
2018-10-18T14:56:16.383Z,658.53
2018-10-18T14:58:46.006Z,610.33
2018-10-18T15:01:16.862Z,666.50
2018-10-18T15:03:48.583Z,688.05
2018-10-18T15:06:19.660Z,606.17
2018-10-18T15:08:48.831Z,587.58
2018-10-18T15:11:18.089Z,599.17
2018-10-18T15:13:47.841Z,685.83
2018-10-18T15:16:22.419Z,674.02
2018-10-18T15:18:58.758Z,684.05
2018-10-18T15:21:37.630Z,603.50
2018-10-18T15:24:08.443Z,590.62
2018-10-18T15:26:38.058Z,551.80
2018-10-18T15:29:11.137Z,530.48
2018-10-18T15:31:40.401Z,528.05
2018-10-18T15:34:18.987Z,523.15
2018-10-18T15:36:48.708Z,600.25
2018-10-18T15:39:18.672Z,518.17
2018-10-18T15:41:48.004Z,632.85
2018-10-18T15:44:18.907Z,504.75
2018-10-18T15:46:48.355Z,568.17
2018-10-18T15:49:19.161Z,488.42
2018-10-18T15:51:48.978Z,520.83
2018-10-18T15:54:20.123Z,506.60
2018-10-18T15:56:49.762Z,540.45
2018-10-18T15:59:19.671Z,541.52
2018-10-18T16:01:50.640Z,476.02
2018-10-18T16:04:20.484Z,484.33
2018-10-18T16:06:49.423Z,518.25
2018-10-18T16:09:21.326Z,542.08
2018-10-18T16:11:51.801Z,461.52
2018-10-18T16:14:22.870Z,413.50
2018-10-18T16:16:56.367Z,458.83
2018-10-18T16:19:28.154Z,471.48
2018-10-18T16:22:01.934Z,457.90
2018-10-18T16:24:32.937Z,551.48
2018-10-18T16:27:02.262Z,509.30
2018-10-18T16:29:37.150Z,526.40
2018-10-18T16:32:06.461Z,540.47
2018-10-18T16:34:35.284Z,513.80
2018-10-18T16:37:04.633Z,423.78
2018-10-18T16:39:33.864Z,443.95
2018-10-18T16:42:03.687Z,446.30
2018-10-18T16:44:34.643Z,437.08
2018-10-18T16:47:03.663Z,448.75
2018-10-18T16:49:32.726Z,415.08
2018-10-18T16:52:02.243Z,444.37
2018-10-18T16:54:35.184Z,463.77
2018-10-18T16:57:04.720Z,481.13
2018-10-18T16:59:34.480Z,432.92
2018-10-18T17:02:04.505Z,412.00
2018-10-18T17:04:35.502Z,411.20
2018-10-18T17:07:05.614Z,416.02
2018-10-18T17:09:35.114Z,439.48
2018-10-18T17:12:06.925Z,450.65
2018-10-18T17:14:36.545Z,452.07
2018-10-18T17:17:06.736Z,434.95
2018-10-18T17:19:37.123Z,415.77
2018-10-18T17:22:11.694Z,409.98
2018-10-18T17:24:41.502Z,444.82
2018-10-18T17:27:12.352Z,409.25
2018-10-18T17:29:42.559Z,410.85
2018-10-18T17:32:16.639Z,443.90
2018-10-18T17:34:47.197Z,456.07
2018-10-18T17:37:17.470Z,477.97
2018-10-18T17:39:48.051Z,418.35
2018-10-18T17:42:18.533Z,404.85
2018-10-18T17:44:47.613Z,528.75
2018-10-18T17:47:18.226Z,495.42
2018-10-18T17:49:48.427Z,412.15
2018-10-18T17:52:18.305Z,404.75
2018-10-18T17:54:51.793Z,415.60
2018-10-18T17:57:21.594Z,445.08
2018-10-18T17:59:52.673Z,504.18
2018-10-18T18:02:24.626Z,429.10
2018-10-18T18:04:57.013Z,498.28
2018-10-18T18:07:31.528Z,410.55
2018-10-18T18:10:04.462Z,433.55
2018-10-18T18:12:34.943Z,392.57
2018-10-18T18:15:06.860Z,398.70
2018-10-18T18:17:42.752Z,413.95
2018-10-18T18:20:15.830Z,439.20
2018-10-18T18:22:56.380Z,393.77
2018-10-18T18:25:34.219Z,419.82
2018-10-18T18:28:11.428Z,428.68
2018-10-18T18:30:52.025Z,416.48
2018-10-18T18:33:24.120Z,452.97
2018-10-18T18:35:59.230Z,427.30
2018-10-18T18:38:30.707Z,431.25
2018-10-18T18:41:04.264Z,400.80
2018-10-18T18:43:35.367Z,364.85
2018-10-18T18:46:08.105Z,395.67
2018-10-18T18:48:42.424Z,362.65
2018-10-18T18:51:13.180Z,370.10
2018-10-18T18:53:43.505Z,412.35
2018-10-18T18:56:18.471Z,456.35
2018-10-18T18:58:55.611Z,465.23
2018-10-18T19:01:30.594Z,378.98
2018-10-18T19:04:00.911Z,416.08
2018-10-18T19:06:34.626Z,411.35
2018-10-18T19:09:05.748Z,369.30
2018-10-18T19:11:37.416Z,456.65
2018-10-18T19:14:08.545Z,389.25
2018-10-18T19:16:40.619Z,431.63
2018-10-18T19:19:10.965Z,421.03
2018-10-18T19:21:41.814Z,396.68
2018-10-18T19:24:14.090Z,331.38
2018-10-18T19:26:44.435Z,423.95
2018-10-18T19:29:15.243Z,440.30
2018-10-18T19:31:45.822Z,382.30
2018-10-18T19:34:16.275Z,448.62
2018-10-18T19:36:46.468Z,439.43
2018-10-18T19:39:18.552Z,443.57
2018-10-18T19:41:49.090Z,385.85
2018-10-18T19:44:22.586Z,379.50
2018-10-18T19:46:53.124Z,365.70
2018-10-18T19:49:24.554Z,367.32
2018-10-18T19:51:55.577Z,437.60
2018-10-18T19:54:25.230Z,353.60
2018-10-18T19:56:56.097Z,319.65
2018-10-18T19:59:28.508Z,343.70
2018-10-18T20:01:59.669Z,406.80
2018-10-18T20:04:29.292Z,321.40
2018-10-18T20:06:58.798Z,375.82
2018-10-18T20:09:27.723Z,381.20
2018-10-18T20:14:51.090Z,410.93
2018-10-18T20:17:20.084Z,379.23
2018-10-18T20:19:49.935Z,356.05
2018-10-18T20:22:20.169Z,416.80
2018-10-18T20:24:49.475Z,371.07
2018-10-18T20:27:18.807Z,389.82
2018-10-18T20:29:48.150Z,416.95
2018-10-18T20:32:19.472Z,358.60
2018-10-18T20:34:49.569Z,339.85
2018-10-18T20:37:19.508Z,378.32
2018-10-18T20:39:49.586Z,386.50
2018-10-18T20:42:19.844Z,361.98
2018-10-18T20:44:48.880Z,399.58
2018-10-18T20:47:18.396Z,345.75
2018-10-18T20:49:47.734Z,387.10
2018-10-18T20:52:20.149Z,371.18
2018-10-18T20:54:55.411Z,405.52
2018-10-18T20:57:26.397Z,380.12
2018-10-18T20:59:57.552Z,446.22
2018-10-18T21:02:26.493Z,395.23
2018-10-18T21:04:56.004Z,422.35
2018-10-18T21:07:25.840Z,416.15
2018-10-18T21:09:54.589Z,391.35
2018-10-18T21:12:23.714Z,412.05
2018-10-18T21:14:53.494Z,385.88
2018-10-18T21:17:22.930Z,396.48
2018-10-18T21:19:51.694Z,321.37
2018-10-18T21:22:21.063Z,354.10
2018-10-18T21:24:49.875Z,363.23
2018-10-18T21:27:18.641Z,382.17
2018-10-18T21:29:48.042Z,418.05
2018-10-18T21:32:17.199Z,502.60
2018-10-18T21:34:46.727Z,385.68
2018-10-18T21:37:15.545Z,405.35
2018-10-18T21:39:44.942Z,371.77
2018-10-18T21:42:13.726Z,400.38
2018-10-18T21:44:43.682Z,358.70
2018-10-18T21:47:13.421Z,387.93
2018-10-18T21:49:42.600Z,350.55
2018-10-18T21:52:11.781Z,382.98
2018-10-18T21:54:41.754Z,392.95
2018-10-18T21:57:11.982Z,342.93
2018-10-18T21:59:41.976Z,344.80
2018-10-18T22:02:10.769Z,396.25
2018-10-18T22:04:41.418Z,352.18
2018-10-18T22:07:10.421Z,445.38
2018-10-18T22:09:39.473Z,394.50
2018-10-18T22:12:08.304Z,375.25
2018-10-18T22:14:37.075Z,374.65
2018-10-18T22:17:06.594Z,317.93
2018-10-18T22:19:35.266Z,387.82
2018-10-18T22:22:04.696Z,395.67
2018-10-18T22:24:33.949Z,363.80
2018-10-18T22:27:02.786Z,380.23
2018-10-18T22:29:31.453Z,341.33
2018-10-18T22:32:00.236Z,411.80
2018-10-18T22:34:29.143Z,397.77
2018-10-18T22:36:57.889Z,379.90
2018-10-18T22:39:26.871Z,415.62
2018-10-18T22:41:56.870Z,383.38
2018-10-18T22:44:26.305Z,374.82
2018-10-18T22:46:55.186Z,339.63
2018-10-18T22:49:25.090Z,372.90
2018-10-18T22:51:53.701Z,428.35
2018-10-18T22:54:22.973Z,335.48
2018-10-18T22:56:51.817Z,299.73
2018-10-18T22:59:20.580Z,328.18
2018-10-18T23:01:49.519Z,315.35
2018-10-18T23:04:18.383Z,313.82
2018-10-18T23:06:47.417Z,372.15
2018-10-18T23:09:16.114Z,326.82
2018-10-18T23:11:44.780Z,387.45
2018-10-18T23:14:13.624Z,329.43
2018-10-18T23:16:42.358Z,386.45
2018-10-18T23:19:11.249Z,356.80
2018-10-18T23:21:40.087Z,358.75
2018-10-18T23:24:08.768Z,378.40
2018-10-18T23:26:37.526Z,350.18
2018-10-18T23:29:06.470Z,354.30
2018-10-18T23:31:35.073Z,326.40
2018-10-18T23:34:03.736Z,376.70
2018-10-18T23:36:32.426Z,346.27
2018-10-18T23:39:01.283Z,425.12
2018-10-18T23:41:30.109Z,341.38
2018-10-18T23:43:58.873Z,364.75
2018-10-18T23:46:27.483Z,383.17
2018-10-18T23:48:56.265Z,331.93
2018-10-18T23:51:25.009Z,347.07
2018-10-18T23:53:53.744Z,392.25
2018-10-18T23:56:23.614Z,365.15
2018-10-18T23:58:52.303Z,388.30
